Time;durP1;ratioP1;P1;durP2;ratioP2;P2;SDS_P1;SDS_P2;PMS_P1;PMS_P2;Temp;Humidity;BMP_temperature;BMP_pressure;BME280_temperature;BME280_humidity;BME280_pressure;Samples;Min_cycle;Max_cycle;Signal;HPM_P1;HPM_P2
2021/06/05 00:04:58;;;;;;;23.65;17.08;;;;;;;20.50;66.17;100695.94;8627230;34;20682;-75
2021/06/05 00:10:01;;;;;;;24.30;18.48;;;;;;;20.48;66.93;100698.00;8606484;34;20217;-75
2021/06/05 00:15:12;;;;;;;20.30;17.17;;;;;;;20.39;67.81;100696.38;8652796;34;20194;-75
2021/06/05 00:20:15;;;;;;;22.20;16.35;;;;;;;20.36;68.15;100684.97;8628257;34;20216;-75
2021/06/05 00:25:17;;;;;;;24.05;18.45;;;;;;;20.37;68.55;100690.25;8652266;34;20197;-74
2021/06/05 00:30:23;;;;;;;23.25;18.25;;;;;;;20.24;68.78;100695.41;8651757;34;20213;-74
2021/06/05 00:35:29;;;;;;;23.63;19.17;;;;;;;20.13;69.46;100696.69;8651551;34;20276;-75
2021/06/05 00:40:36;;;;;;;21.70;16.80;;;;;;;19.75;70.36;100701.16;8628059;34;20209;-74
2021/06/05 00:45:44;;;;;;;20.20;16.08;;;;;;;19.70;70.63;100700.81;8651454;34;20174;-75
2021/06/05 00:50:50;;;;;;;23.42;17.83;;;;;;;19.90;70.73;100702.91;8776759;27;20723;-72
2021/06/05 00:56:01;;;;;;;23.20;19.23;;;;;;;20.03;70.55;100704.25;8741905;33;20188;-72
2021/06/05 01:01:11;;;;;;;22.25;17.70;;;;;;;20.15;70.32;100710.13;8708165;34;20200;-71
2021/06/05 01:06:20;;;;;;;24.48;18.00;;;;;;;20.16;69.77;100704.50;8683547;34;20206;-71
2021/06/05 01:11:33;;;;;;;25.02;18.95;;;;;;;20.14;70.08;100701.09;8683950;34;20662;-72
2021/06/05 01:16:41;;;;;;;24.30;18.00;;;;;;;20.12;70.25;100714.91;8710478;34;20216;-72
2021/06/05 01:22:02;;;;;;;29.23;20.08;;;;;;;20.04;70.02;100705.94;8713701;34;20168;-71
2021/06/05 01:27:14;;;;;;;24.35;19.70;;;;;;;19.97;70.61;100694.91;8711651;33;20633;-71
2021/06/05 01:32:18;;;;;;;24.08;19.08;;;;;;;19.94;70.68;100702.56;8711699;34;20191;-72
2021/06/05 01:37:22;;;;;;;27.35;20.08;;;;;;;19.90;70.70;100699.34;8688074;34;20211;-71
2021/06/05 01:42:37;;;;;;;27.58;20.15;;;;;;;19.78;70.98;100696.19;8689118;34;20292;-71
2021/06/05 01:47:41;;;;;;;25.88;19.63;;;;;;;19.85;70.79;100697.16;8688186;34;20224;-71
2021/06/05 01:52:46;;;;;;;25.15;18.95;;;;;;;19.73;70.77;100703.19;8688428;34;20193;-71
2021/06/05 01:57:55;;;;;;;25.60;19.35;;;;;;;19.68;71.33;100696.38;8711929;34;20728;-71
2021/06/05 02:03:11;;;;;;;25.25;19.35;;;;;;;19.43;71.76;100694.75;8688051;34;20203;-72
2021/06/05 02:08:23;;;;;;;27.02;19.42;;;;;;;19.36;72.37;100693.72;8687931;34;20322;-72
2021/06/05 02:13:36;;;;;;;24.60;19.50;;;;;;;19.40;72.32;100685.03;8688140;34;20339;-71
2021/06/05 02:18:54;;;;;;;26.02;19.17;;;;;;;19.43;71.98;100683.84;8687489;34;20213;-72
2021/06/05 02:24:14;;;;;;;25.52;20.10;;;;;;;19.41;72.11;100677.72;8710469;34;20218;-71
2021/06/05 02:29:24;;;;;;;27.98;20.80;;;;;;;19.34;72.14;100687.63;8686575;34;20213;-71
2021/06/05 02:34:30;;;;;;;23.27;18.50;;;;;;;19.33;72.26;100680.47;8687233;34;20208;-72
2021/06/05 02:39:36;;;;;;;26.88;18.67;;;;;;;19.32;72.04;100676.06;8710220;34;20205;-72
2021/06/05 02:44:49;;;;;;;25.25;19.23;;;;;;;19.29;72.25;100670.97;8710974;34;20189;-72
2021/06/05 02:49:53;;;;;;;26.27;20.25;;;;;;;19.14;72.30;100676.25;8686945;34;20225;-71
2021/06/05 02:55:01;;;;;;;26.92;20.80;;;;;;;18.98;73.12;100671.72;8710736;34;20258;-72
2021/06/05 03:00:09;;;;;;;24.25;19.17;;;;;;;18.49;74.74;100671.69;8710753;34;20287;-71
2021/06/05 03:05:13;;;;;;;25.98;18.88;;;;;;;18.55;75.20;100676.47;8710515;34;20185;-72
2021/06/05 03:10:19;;;;;;;26.45;20.08;;;;;;;18.88;74.11;100662.88;8687051;34;20217;-71
2021/06/05 03:15:24;;;;;;;26.58;20.70;;;;;;;19.07;73.38;100661.66;8686237;34;20189;-72
2021/06/05 03:20:32;;;;;;;25.45;19.67;;;;;;;19.19;72.44;100661.09;8710744;34;20204;-71
2021/06/05 03:25:37;;;;;;;24.50;19.15;;;;;;;19.27;71.81;100665.66;8708896;34;20287;-71
2021/06/05 03:30:42;;;;;;;23.92;19.13;;;;;;;19.19;71.63;100668.41;8690494;34;20223;-72
2021/06/05 03:35:45;;;;;;;24.88;18.50;;;;;;;19.02;71.88;100670.31;8691310;34;20197;-72
2021/06/05 03:40:52;;;;;;;24.98;17.88;;;;;;;19.06;71.87;100668.97;8686549;34;20213;-72
2021/06/05 03:45:58;;;;;;;21.77;17.92;;;;;;;19.09;71.76;100662.31;8686316;34;20780;-71
2021/06/05 03:51:05;;;;;;;22.50;17.70;;;;;;;19.08;71.72;100658.75;8709840;34;20205;-72
2021/06/05 03:56:09;;;;;;;25.85;18.73;;;;;;;19.20;71.54;100657.38;8709240;34;20188;-71
2021/06/05 04:01:16;;;;;;;26.10;18.10;;;;;;;19.27;71.22;100664.84;8710055;34;20195;-72
2021/06/05 04:06:20;;;;;;;28.17;19.83;;;;;;;19.26;71.19;100661.25;8710296;34;20271;-71
2021/06/05 04:11:23;;;;;;;26.35;20.52;;;;;;;19.45;70.95;100660.00;8709270;34;20303;-72
2021/06/05 04:16:29;;;;;;;26.75;19.38;;;;;;;19.54;70.21;100661.66;8708848;34;20205;-72
2021/06/05 04:21:32;;;;;;;24.25;19.58;;;;;;;19.49;70.27;100661.34;8708985;34;20809;-72
2021/06/05 04:26:35;;;;;;;26.45;19.75;;;;;;;19.44;70.65;100655.56;8708512;34;20240;-72
2021/06/05 04:31:40;;;;;;;26.52;19.80;;;;;;;19.67;70.35;100658.41;8684805;34;20693;-72
2021/06/05 04:36:43;;;;;;;28.77;20.38;;;;;;;19.74;69.93;100667.56;8707345;34;20209;-71
2021/06/05 04:41:45;;;;;;;27.85;21.40;;;;;;;19.79;69.63;100664.31;8708474;34;20716;-71
2021/06/05 04:46:49;;;;;;;28.38;21.10;;;;;;;19.64;69.98;100669.69;8707910;34;20235;-71
2021/06/05 04:51:52;;;;;;;29.30;20.98;;;;;;;19.45;70.99;100676.34;8708126;34;20184;-71
2021/06/05 04:56:55;;;;;;;35.78;24.33;;;;;;;19.55;71.34;100671.53;8707762;34;20208;-71
2021/06/05 05:01:59;;;;;;;28.13;21.50;;;;;;;19.79;70.59;100684.25;8685043;34;20189;-71
2021/06/05 05:07:02;;;;;;;29.90;21.35;;;;;;;19.88;70.20;100685.91;8707606;34;20701;-70
2021/06/05 05:12:07;;;;;;;28.52;21.88;;;;;;;19.99;69.61;100694.69;8707909;34;20189;-70
2021/06/05 05:17:11;;;;;;;18.55;11.70;;;;;;;20.11;69.35;100696.00;8707520;34;20713;-70
2021/06/05 05:22:14;;;;;;;29.00;20.20;;;;;;;20.26;68.98;100694.19;8707877;34;20192;-70
2021/06/05 05:27:16;;;;;;;15.15;12.68;;;;;;;20.36;68.66;100702.19;8707078;34;20866;-70
2021/06/05 05:32:21;;;;;;;23.45;19.30;;;;;;;20.41;68.36;100691.59;8707830;34;20212;-70
2021/06/05 05:37:23;;;;;;;14.60;12.60;;;;;;;20.49;68.30;100693.41;8708182;34;20197;-70
2021/06/05 05:42:26;;;;;;;20.08;13.40;;;;;;;20.66;67.60;100696.84;8708767;34;20184;-70
2021/06/05 05:47:31;;;;;;;20.02;15.23;;;;;;;20.81;67.09;100694.16;8707551;34;20616;-70
2021/06/05 05:52:33;;;;;;;26.90;20.25;;;;;;;21.10;66.47;100694.25;8708280;34;20185;-70
2021/06/05 05:57:37;;;;;;;29.05;21.35;;;;;;;21.29;65.63;100695.59;8707706;34;20205;-70
2021/06/05 06:02:41;;;;;;;30.83;21.00;;;;;;;21.31;65.32;100700.88;8710116;34;20601;-70
2021/06/05 06:07:44;;;;;;;30.27;19.98;;;;;;;21.27;65.87;100694.94;8712402;34;20209;-70
2021/06/05 06:12:47;;;;;;;27.42;20.08;;;;;;;20.99;66.07;100697.41;8712762;34;20809;-70
2021/06/05 06:17:52;;;;;;;29.05;20.25;;;;;;;20.72;65.90;100707.03;8712468;34;20220;-70
2021/06/05 06:22:56;;;;;;;27.40;19.58;;;;;;;20.38;66.29;100708.31;8712559;34;20177;-70
2021/06/05 06:28:00;;;;;;;29.90;20.23;;;;;;;20.24;67.31;100712.66;8712104;34;20201;-70
2021/06/05 06:33:07;;;;;;;31.35;19.95;;;;;;;20.46;66.72;100713.72;8712243;34;20181;-71
2021/06/05 06:38:14;;;;;;;31.80;20.38;;;;;;;20.11;67.45;100710.50;8712152;34;20205;-69
2021/06/05 06:43:22;;;;;;;31.90;20.52;;;;;;;20.49;66.92;100710.63;8712160;34;20181;-70
2021/06/05 06:48:44;;;;;;;30.88;18.75;;;;;;;20.50;66.45;100709.59;8720912;27;20241;-72
2021/06/05 06:53:48;;;;;;;32.13;20.10;;;;;;;20.81;64.96;100716.84;8711651;34;20197;-71
2021/06/05 06:58:51;;;;;;;29.90;20.05;;;;;;;20.84;65.55;100718.34;8711616;34;20209;-71
2021/06/05 07:03:55;;;;;;;32.10;20.90;;;;;;;21.18;64.02;100724.22;8711771;34;20604;-72
2021/06/05 07:08:58;;;;;;;32.75;21.73;;;;;;;20.77;65.25;100730.03;8711598;34;20227;-70
2021/06/05 07:14:06;;;;;;;31.55;20.88;;;;;;;20.60;66.38;100733.91;8710816;34;20216;-71
2021/06/05 07:19:11;;;;;;;32.28;20.67;;;;;;;20.68;66.17;100742.03;8711934;34;20216;-71
2021/06/05 07:24:14;;;;;;;34.22;22.77;;;;;;;20.62;66.91;100736.44;8710617;34;20578;-71
2021/06/05 07:29:16;;;;;;;33.42;20.95;;;;;;;20.91;66.20;100736.56;8710816;34;20211;-71
2021/06/05 07:34:26;;;;;;;31.83;21.15;;;;;;;20.91;66.23;100749.38;8710628;34;20178;-71
2021/06/05 07:39:30;;;;;;;32.53;21.83;;;;;;;21.09;65.78;100751.78;8710731;34;20197;-72
2021/06/05 07:44:34;;;;;;;30.52;20.48;;;;;;;20.95;65.58;100758.88;8710255;34;20180;-72
2021/06/05 07:49:40;;;;;;;30.20;20.15;;;;;;;21.00;66.31;100748.25;8709804;34;20217;-72
2021/06/05 07:54:42;;;;;;;29.73;19.70;;;;;;;21.50;64.45;100748.66;8709987;34;20192;-72
2021/06/05 07:59:45;;;;;;;26.83;19.63;;;;;;;21.86;62.91;100744.16;8710165;34;20216;-71
2021/06/05 08:04:49;;;;;;;30.67;21.75;;;;;;;21.83;62.50;100746.41;8710064;34;20180;-71
2021/06/05 08:09:53;;;;;;;31.35;23.20;;;;;;;21.86;63.00;100735.13;8709716;34;20232;-71
2021/06/05 08:14:56;;;;;;;34.47;24.63;;;;;;;21.92;63.07;100733.53;8709636;34;20177;-71
2021/06/05 08:19:59;;;;;;;40.72;27.88;;;;;;;21.88;62.37;100731.13;8709822;34;20204;-71
2021/06/05 08:25:04;;;;;;;34.20;25.27;;;;;;;22.12;60.64;100734.59;8708499;34;20203;-72
2021/06/05 08:30:16;;;;;;;35.35;24.42;;;;;;;23.30;56.89;100740.66;8710041;34;20205;-72
2021/06/05 08:35:20;;;;;;;35.05;26.58;;;;;;;22.85;57.54;100735.41;8709387;34;20174;-72
2021/06/05 08:40:36;;;;;;;37.67;27.48;;;;;;;23.20;56.72;100740.97;8709563;34;20197;-72
2021/06/05 08:45:40;;;;;;;40.88;28.25;;;;;;;22.77;58.20;100749.25;8709641;34;20181;-72
2021/06/05 08:50:45;;;;;;;38.90;28.55;;;;;;;22.63;58.12;100750.16;8709280;34;20217;-72
2021/06/05 08:55:54;;;;;;;40.15;28.55;;;;;;;21.87;59.74;100747.75;8708833;34;20173;-71
2021/06/05 09:01:01;;;;;;;41.55;28.08;;;;;;;22.20;60.14;100758.25;8709162;34;20620;-72
2021/06/05 09:06:10;;;;;;;40.42;28.33;;;;;;;22.25;59.72;100759.38;8685247;34;20200;-72
2021/06/05 09:11:15;;;;;;;42.47;27.17;;;;;;;21.58;61.96;100760.34;8709486;34;20213;-71
2021/06/05 09:16:40;;;;;;;34.25;23.67;;;;;;;21.78;59.96;100759.84;8709294;34;20188;-71
2021/06/05 09:21:48;;;;;;;30.00;21.02;;;;;;;21.83;60.25;100760.97;8709027;34;20753;-71
2021/06/05 09:27:05;;;;;;;32.17;22.60;;;;;;;21.91;60.58;100778.28;8708617;34;20205;-71
2021/06/05 09:32:11;;;;;;;37.17;25.13;;;;;;;21.24;63.09;100774.53;8709109;34;20195;-72
2021/06/05 09:37:38;;;;;;;41.40;28.45;;;;;;;21.09;63.47;100782.72;8711275;34;20209;-71
2021/06/05 09:42:46;;;;;;;47.40;31.05;;;;;;;21.22;63.58;100782.91;8713739;34;20177;-72
2021/06/05 09:47:49;;;;;;;37.92;26.27;;;;;;;21.64;61.00;100781.47;8713258;34;20204;-72
2021/06/05 09:52:54;;;;;;;43.38;28.15;;;;;;;22.22;59.43;100781.66;8713640;34;20725;-72
2021/06/05 09:57:58;;;;;;;44.33;28.60;;;;;;;22.96;58.50;100777.88;8713022;34;20219;-72
2021/06/05 10:03:26;;;;;;;43.60;30.67;;;;;;;23.51;55.67;100778.13;8713469;34;20188;-71
2021/06/05 10:08:38;;;;;;;40.65;28.25;;;;;;;24.60;54.12;100777.41;8688458;34;20221;-72
2021/06/05 10:13:45;;;;;;;46.55;32.90;;;;;;;23.74;54.61;100770.44;8712752;34;20578;-71
2021/06/05 10:18:56;;;;;;;47.40;31.77;;;;;;;23.45;56.45;100760.59;8712293;34;20201;-71
2021/06/05 10:24:04;;;;;;;50.60;31.08;;;;;;;24.08;54.66;100758.66;8712129;34;20280;-71
2021/06/05 10:29:16;;;;;;;49.42;33.33;;;;;;;25.15;51.15;100756.16;8712227;34;20224;-71
2021/06/05 10:34:30;;;;;;;47.53;32.17;;;;;;;26.36;50.98;100750.19;8711978;34;20173;-71
2021/06/05 10:39:40;;;;;;;46.17;32.15;;;;;;;26.06;49.29;100741.63;8712209;34;20197;-71
2021/06/05 10:44:42;;;;;;;48.38;31.95;;;;;;;25.79;50.13;100752.72;8711668;34;20189;-71
2021/06/05 10:49:53;;;;;;;49.78;33.35;;;;;;;24.95;51.92;100751.47;8710925;34;20213;-71
2021/06/05 10:55:03;;;;;;;47.88;32.17;;;;;;;23.83;55.64;100750.09;8711959;34;20662;-71
2021/06/05 11:00:28;;;;;;;50.05;33.80;;;;;;;23.62;55.98;100756.47;8711385;34;20281;-71
2021/06/05 11:06:00;;;;;;;55.08;35.42;;;;;;;23.12;57.85;100754.81;8711344;34;20196;-70
2021/06/05 11:11:44;;;;;;;56.90;35.00;;;;;;;24.73;54.06;100758.22;8710967;34;20201;-69
2021/06/05 11:17:31;;;;;;;56.97;36.67;;;;;;;25.06;53.21;100757.44;8710326;34;20594;-71
2021/06/05 11:23:10;;;;;;;55.28;36.30;;;;;;;24.47;53.07;100748.03;8670213;34;20551;-70
2021/06/05 11:28:45;;;;;;;55.60;36.10;;;;;;;25.20;51.04;100753.63;8709949;34;20211;-70
2021/06/05 11:33:47;;;;;;;56.42;35.40;;;;;;;25.25;51.02;100750.25;8710772;34;20180;-70
2021/06/05 11:38:51;;;;;;;51.05;35.05;;;;;;;25.57;50.32;100756.75;8709983;34;20201;-70
2021/06/05 11:44:20;;;;;;;50.22;33.53;;;;;;;24.61;52.51;100763.50;8710732;34;20188;-71
2021/06/05 11:49:57;;;;;;;57.53;37.75;;;;;;;22.77;58.13;100754.72;8711942;34;20244;-73
2021/06/05 11:55:13;;;;;;;58.33;36.75;;;;;;;23.40;57.06;100750.22;8710500;34;20181;-72
2021/06/05 12:00:26;;;;;;;56.17;34.30;;;;;;;24.54;53.00;100749.72;8709869;34;20207;-72
2021/06/05 12:05:34;;;;;;;52.45;35.10;;;;;;;24.95;51.86;100745.97;8709505;34;20192;-72
2021/06/05 12:10:40;;;;;;;55.50;33.88;;;;;;;24.15;53.33;100742.19;8685873;34;20251;-72
2021/06/05 12:15:44;;;;;;;52.25;30.70;;;;;;;24.58;52.34;100741.94;8709354;34;20709;-72
2021/06/05 12:20:54;;;;;;;53.45;33.15;;;;;;;23.91;54.26;100729.00;8709473;34;20799;-71
2021/06/05 12:26:04;;;;;;;55.13;33.40;;;;;;;25.26;51.18;100724.44;8709805;34;20193;-72
2021/06/05 12:31:19;;;;;;;51.63;32.85;;;;;;;26.62;49.05;100729.03;8709362;34;20639;-72
2021/06/05 12:36:27;;;;;;;48.17;30.85;;;;;;;27.10;47.14;100729.34;8709018;34;20591;-72
2021/06/05 12:41:30;;;;;;;40.97;27.58;;;;;;;27.57;46.03;100729.75;8709409;34;20723;-71
2021/06/05 12:46:37;;;;;;;41.42;27.73;;;;;;;27.00;45.56;100742.78;8709102;34;20185;-71
2021/06/05 12:51:49;;;;;;;38.80;27.05;;;;;;;27.19;45.21;100724.38;8777615;27;20238;-75
2021/06/05 12:56:52;;;;;;;35.53;24.48;;;;;;;26.55;45.52;100723.59;8766005;33;20173;-76
2021/06/05 13:01:57;;;;;;;31.05;22.42;;;;;;;26.37;46.65;100720.72;8708716;34;20177;-75
2021/06/05 13:07:03;;;;;;;29.92;21.65;;;;;;;27.45;42.18;100719.69;8707849;34;20469;-74
2021/06/05 13:12:30;;;;;;;28.70;20.73;;;;;;;27.14;42.72;100714.00;8707646;34;20208;-74
2021/06/05 13:17:34;;;;;;;33.13;22.55;;;;;;;28.31;42.03;100704.84;8708017;34;20215;-74
2021/06/05 13:22:38;;;;;;;28.80;20.55;;;;;;;26.65;45.22;100704.63;8708483;34;20189;-74
2021/06/05 13:28:14;;;;;;;31.42;22.45;;;;;;;26.95;45.45;100704.84;8707691;34;20201;-75
2021/06/05 13:33:32;;;;;;;35.78;23.65;;;;;;;24.95;48.94;100702.00;8710675;34;20199;-75
2021/06/05 13:38:53;;;;;;;35.03;23.35;;;;;;;24.69;51.29;100702.03;8723245;34;20218;-75
2021/06/05 13:43:57;;;;;;;33.60;22.52;;;;;;;25.10;50.24;100701.84;8708866;34;20733;-73
2021/06/05 13:49:00;;;;;;;36.15;23.75;;;;;;;24.37;53.42;100704.47;8707674;34;20634;-74
2021/06/05 13:54:04;;;;;;;37.15;23.63;;;;;;;24.28;51.18;100695.59;8709414;33;20193;-75
2021/06/05 13:59:08;;;;;;;33.78;22.42;;;;;;;26.41;47.43;100686.16;8709087;34;20644;-75
2021/06/05 14:04:13;;;;;;;33.97;22.40;;;;;;;26.44;46.44;100688.47;8706506;34;20225;-75
2021/06/05 14:09:16;;;;;;;32.58;21.98;;;;;;;26.85;45.80;100685.25;8707529;34;20216;-74
2021/06/05 14:14:21;;;;;;;25.48;18.33;;;;;;;25.73;48.11;100676.56;8706908;34;20189;-74
2021/06/05 14:19:24;;;;;;;27.35;18.67;;;;;;;26.24;47.10;100678.44;8709326;34;20216;-75
2021/06/05 14:24:26;;;;;;;25.02;18.23;;;;;;;27.21;45.22;100658.81;8711291;34;20730;-75
2021/06/05 14:29:31;;;;;;;22.48;16.67;;;;;;;27.65;43.90;100658.78;8689438;34;20209;-74
2021/06/05 14:34:34;;;;;;;21.55;15.88;;;;;;;27.33;44.93;100675.44;8712795;34;20188;-75
2021/06/05 14:39:36;;;;;;;21.33;15.65;;;;;;;27.98;44.27;100664.75;8713164;34;20308;-75
2021/06/05 14:44:41;;;;;;;21.83;16.77;;;;;;;28.17;43.17;100676.59;8712607;34;20588;-75
2021/06/05 14:49:43;;;;;;;21.75;16.85;;;;;;;27.68;45.12;100674.88;8712481;34;20271;-75
2021/06/05 14:54:46;;;;;;;25.33;18.60;;;;;;;26.32;47.97;100693.84;8712190;34;20225;-75
2021/06/05 14:59:50;;;;;;;23.70;17.70;;;;;;;25.06;50.70;100694.22;8713217;34;20236;-75
2021/06/05 15:04:53;;;;;;;22.65;16.77;;;;;;;26.23;49.10;100697.91;8712273;34;20185;-75
2021/06/05 15:09:56;;;;;;;23.75;17.23;;;;;;;25.73;48.34;100695.81;8712472;34;20264;-74
2021/06/05 15:15:00;;;;;;;22.65;16.30;;;;;;;25.53;49.28;100700.47;8688493;34;20598;-75
2021/06/05 15:20:07;;;;;;;23.38;16.85;;;;;;;26.88;46.78;100694.97;8712244;34;20205;-74
2021/06/05 15:25:13;;;;;;;23.83;17.48;;;;;;;25.02;49.70;100684.69;8711347;34;20185;-73
2021/06/05 15:30:23;;;;;;;24.52;17.13;;;;;;;24.28;51.63;100692.00;8711531;34;20251;-74
2021/06/05 15:35:31;;;;;;;25.33;18.77;;;;;;;23.38;54.60;100694.75;8711065;34;20189;-75
2021/06/05 15:40:35;;;;;;;26.25;20.38;;;;;;;23.17;54.87;100700.28;8711532;34;20209;-75
2021/06/05 15:45:46;;;;;;;30.90;21.92;;;;;;;22.59;58.91;100700.41;8686931;34;20207;-75
2021/06/05 15:50:49;;;;;;;32.65;22.75;;;;;;;21.52;62.19;100706.44;8710886;34;20204;-75
2021/06/05 15:55:52;;;;;;;27.27;18.83;;;;;;;21.58;62.87;100727.53;8710540;34;20197;-75
2021/06/05 16:00:57;;;;;;;28.65;19.23;;;;;;;21.53;62.79;100718.22;8710707;34;20212;-75
2021/06/05 16:05:59;;;;;;;28.27;17.65;;;;;;;20.70;66.35;100742.69;8710478;34;20231;-75
2021/06/05 16:11:04;;;;;;;29.35;18.70;;;;;;;20.67;66.44;100743.06;8710435;34;20213;-75
2021/06/05 16:16:11;;;;;;;32.47;20.60;;;;;;;21.19;64.72;100725.06;8709989;34;20188;-75
2021/06/05 16:21:22;;;;;;;31.92;21.55;;;;;;;21.16;65.55;100736.38;8686247;34;20216;-74
2021/06/05 16:26:34;;;;;;;37.20;24.02;;;;;;;21.20;66.42;100730.34;8710527;34;20239;-74
2021/06/05 16:31:39;;;;;;;43.88;24.83;;;;;;;21.43;67.79;100733.00;8710212;34;20301;-74
2021/06/05 16:36:43;;;;;;;29.40;19.95;;;;;;;21.62;68.19;100747.16;8711048;34;20275;-74
2021/06/05 16:41:46;;;;;;;19.40;12.00;;;;;;;21.86;67.78;100748.81;8710293;34;20197;-74
2021/06/05 16:46:50;;;;;;;11.82;8.43;;;;;;;22.17;65.96;100748.56;8709551;34;20685;-74
2021/06/05 16:51:54;;;;;;;10.93;8.35;;;;;;;22.88;64.20;100756.09;8709798;34;20725;-75
2021/06/05 16:56:56;;;;;;;12.77;9.35;;;;;;;22.65;63.04;100761.75;8710052;34;20185;-75
2021/06/05 17:02:00;;;;;;;15.88;10.98;;;;;;;22.23;64.47;100774.28;8709804;34;20192;-74
2021/06/05 17:07:04;;;;;;;15.43;10.68;;;;;;;21.78;67.50;100763.41;8709113;34;20185;-74
2021/06/05 17:12:08;;;;;;;16.73;11.35;;;;;;;21.41;69.40;100773.34;8709051;34;20643;-75
2021/06/05 17:17:13;;;;;;;16.05;11.57;;;;;;;21.16;70.64;100774.59;8708732;34;20173;-74
2021/06/05 17:22:17;;;;;;;17.92;12.38;;;;;;;21.04;70.63;100767.91;8709159;34;20181;-74
2021/06/05 17:27:19;;;;;;;17.67;12.43;;;;;;;20.90;71.82;100764.91;8708854;34;20212;-75
2021/06/05 17:32:25;;;;;;;18.27;12.63;;;;;;;20.85;71.42;100769.22;8708847;34;20201;-75
2021/06/05 17:37:27;;;;;;;16.92;12.30;;;;;;;20.41;70.05;100775.31;8707321;34;20223;-75
2021/06/05 17:42:30;;;;;;;21.35;14.07;;;;;;;20.15;71.19;100773.69;8708951;34;20583;-74
2021/06/05 17:47:34;;;;;;;22.98;15.60;;;;;;;20.26;73.72;100772.44;8708142;34;20217;-74
2021/06/05 17:52:37;;;;;;;28.60;20.13;;;;;;;19.52;77.20;100769.97;8684620;34;20228;-74
2021/06/05 17:57:40;;;;;;;32.58;21.10;;;;;;;19.19;80.52;100775.47;8712101;34;20208;-74
2021/06/05 18:02:45;;;;;;;31.73;20.63;;;;;;;18.92;80.92;100783.97;8713674;34;20185;-73
2021/06/05 18:07:48;;;;;;;34.10;21.67;;;;;;;19.19;81.29;100786.34;8713101;34;20248;-73
2021/06/05 18:12:52;;;;;;;33.55;21.27;;;;;;;19.49;81.58;100800.28;8713005;34;20220;-73
2021/06/05 18:17:56;;;;;;;32.85;22.13;;;;;;;18.90;77.98;100805.09;8712471;34;20209;-73
2021/06/05 18:23:01;;;;;;;37.13;21.92;;;;;;;18.23;78.44;100805.91;8712879;34;20308;-72
2021/06/05 18:28:07;;;;;;;35.45;22.25;;;;;;;18.96;80.29;100804.41;8712108;34;20213;-72
2021/06/05 18:33:14;;;;;;;39.33;22.85;;;;;;;18.93;77.10;100807.47;8712273;34;20735;-73
2021/06/05 18:38:21;;;;;;;35.17;22.67;;;;;;;18.90;77.68;100802.38;8711907;34;20213;-73
2021/06/05 18:43:25;;;;;;;34.83;22.85;;;;;;;18.99;76.76;100806.78;8688384;34;20185;-72
2021/06/05 18:48:31;;;;;;;35.00;21.50;;;;;;;18.80;77.63;100805.25;8732297;27;20606;-72
2021/06/05 18:53:36;;;;;;;34.15;22.33;;;;;;;18.89;78.26;100808.81;8757526;33;20204;-72
2021/06/05 18:58:43;;;;;;;33.00;21.23;;;;;;;18.91;78.13;100814.94;8768458;33;20207;-72
2021/06/05 19:03:47;;;;;;;35.72;22.33;;;;;;;18.85;77.49;100819.19;8770651;33;20187;-72
2021/06/05 19:08:50;;;;;;;35.10;20.92;;;;;;;18.79;78.20;100822.59;8768555;33;20746;-72
2021/06/05 19:13:53;;;;;;;29.50;19.02;;;;;;;18.79;76.40;100823.44;8769637;33;20204;-73
2021/06/05 19:18:57;;;;;;;37.58;23.02;;;;;;;18.71;76.00;100833.44;8769384;33;20211;-73
2021/06/05 19:24:00;;;;;;;32.60;20.48;;;;;;;18.89;77.88;100842.31;8768994;33;20184;-73
2021/06/05 19:29:03;;;;;;;32.95;21.80;;;;;;;18.85;77.78;100843.69;8769519;33;20200;-73
2021/06/05 19:34:09;;;;;;;30.23;20.23;;;;;;;18.89;78.76;100845.03;8768803;33;20219;-73
2021/06/05 19:39:16;;;;;;;31.52;19.20;;;;;;;18.69;76.17;100863.50;8769560;33;20215;-73
2021/06/05 19:44:19;;;;;;;32.45;19.38;;;;;;;18.67;77.56;100873.72;8768541;33;20176;-73
2021/06/05 19:49:24;;;;;;;28.75;18.70;;;;;;;18.25;74.34;100871.84;8768729;33;20238;-73
2021/06/05 19:54:30;;;;;;;26.30;18.52;;;;;;;18.02;77.03;100896.03;8769534;33;20232;-72
2021/06/05 19:59:33;;;;;;;26.35;17.23;;;;;;;18.31;76.64;100894.81;8768604;33;20220;-73
2021/06/05 20:04:39;;;;;;;25.25;18.45;;;;;;;18.39;77.76;100897.59;8769755;33;20172;-73
2021/06/05 20:09:42;;;;;;;25.88;17.55;;;;;;;18.35;77.45;100890.78;8768060;33;20208;-73
2021/06/05 20:14:46;;;;;;;27.38;18.48;;;;;;;18.06;76.18;100902.84;8767517;33;20498;-73
2021/06/05 20:19:50;;;;;;;24.60;16.92;;;;;;;17.92;76.13;100904.25;8767324;33;20609;-73
2021/06/05 20:24:52;;;;;;;27.58;18.27;;;;;;;17.82;75.36;100895.34;8767098;33;20188;-73
2021/06/05 20:29:55;;;;;;;27.17;18.10;;;;;;;17.59;75.95;100905.03;8766978;33;20200;-72
2021/06/05 20:34:59;;;;;;;28.27;18.38;;;;;;;17.58;75.96;100897.88;8766514;33;20208;-72
2021/06/05 20:40:04;;;;;;;27.85;17.52;;;;;;;17.11;75.71;100914.41;8767234;33;20208;-73
2021/06/05 20:45:11;;;;;;;29.55;18.35;;;;;;;17.27;76.35;100916.47;8765967;33;20748;-73
2021/06/05 20:50:20;;;;;;;27.60;17.75;;;;;;;17.17;75.96;100913.84;8766157;33;20235;-71
2021/06/05 20:55:25;;;;;;;25.08;16.70;;;;;;;17.08;75.89;100912.84;8767015;33;20180;-71
2021/06/05 21:00:35;;;;;;;28.63;16.70;;;;;;;17.19;74.65;100914.53;8766893;33;20204;-71
2021/06/05 21:05:39;;;;;;;26.02;16.05;;;;;;;16.96;74.94;100919.53;8766533;33;20183;-73
2021/06/05 21:10:44;;;;;;;24.90;16.00;;;;;;;17.21;75.08;100917.94;8766868;33;20204;-73
2021/06/05 21:15:47;;;;;;;28.52;17.27;;;;;;;16.93;75.28;100915.25;8766227;33;20195;-72
2021/06/05 21:20:53;;;;;;;26.08;16.85;;;;;;;17.05;75.42;100929.44;8765622;33;20200;-74
2021/06/05 21:25:56;;;;;;;25.10;16.05;;;;;;;17.18;76.63;100923.69;8766460;33;20189;-71
2021/06/05 21:30:59;;;;;;;25.80;16.85;;;;;;;17.03;75.10;100926.03;8767146;33;20204;-71
2021/06/05 21:36:08;;;;;;;25.98;16.55;;;;;;;16.99;75.15;100930.06;8770370;33;20604;-72
2021/06/05 21:41:11;;;;;;;29.20;17.10;;;;;;;16.96;73.71;100927.66;8771431;33;20207;-72
2021/06/05 21:46:14;;;;;;;29.13;16.77;;;;;;;16.93;74.06;100938.84;8771453;33;20176;-73
2021/06/05 21:51:24;;;;;;;28.58;18.08;;;;;;;16.91;74.48;100936.25;8771548;33;20616;-72
2021/06/05 21:56:27;;;;;;;31.88;18.13;;;;;;;16.67;73.81;100936.81;8770984;33;20192;-72
2021/06/05 22:01:29;;;;;;;30.50;19.42;;;;;;;16.69;74.35;100939.38;8771442;33;20634;-73
2021/06/05 22:06:37;;;;;;;35.03;21.00;;;;;;;16.48;75.43;100945.94;8770649;33;20196;-72
2021/06/05 22:11:42;;;;;;;37.70;21.73;;;;;;;16.50;75.01;100943.91;8771025;33;20211;-72
2021/06/05 22:16:49;;;;;;;38.33;22.27;;;;;;;16.42;75.62;100942.94;8769732;33;20322;-72
2021/06/05 22:21:57;;;;;;;39.00;22.33;;;;;;;16.70;74.86;100950.09;8769724;33;20609;-72
2021/06/05 22:27:00;;;;;;;42.45;23.08;;;;;;;16.78;74.83;100954.75;8769300;33;20708;-72
2021/06/05 22:32:04;;;;;;;42.22;23.63;;;;;;;16.53;75.35;100950.88;8769741;33;20227;-72
2021/06/05 22:37:08;;;;;;;46.75;26.52;;;;;;;16.64;75.45;100955.25;8769150;33;20272;-72
2021/06/05 22:42:11;;;;;;;49.38;26.02;;;;;;;16.79;74.63;100964.63;8767986;33;20204;-72
2021/06/05 22:47:13;;;;;;;42.67;25.83;;;;;;;16.94;74.63;100964.94;8768648;33;20707;-72
2021/06/05 22:52:20;;;;;;;49.38;26.95;;;;;;;17.18;74.38;100965.25;8769087;33;20219;-72
2021/06/05 22:57:22;;;;;;;48.17;26.08;;;;;;;17.28;73.92;100969.75;8768700;33;20191;-72
2021/06/05 23:02:25;;;;;;;50.55;27.70;;;;;;;17.38;73.56;100968.69;8769050;33;20188;-72
2021/06/05 23:07:29;;;;;;;54.42;29.35;;;;;;;17.41;73.27;100975.66;8768586;33;20184;-72
2021/06/05 23:12:31;;;;;;;53.33;28.00;;;;;;;17.40;73.09;100965.81;8768880;33;20203;-72
2021/06/05 23:17:36;;;;;;;52.03;27.73;;;;;;;17.52;73.40;100967.28;8768261;33;20188;-72